Time;durP1;ratioP1;P1;durP2;ratioP2;P2;SDS_P1;SDS_P2;PMS_P1;PMS_P2;Temp;Humidity;BMP_temperature;BMP_pressure;BME280_temperature;BME280_humidity;BME280_pressure;Samples;Min_cycle;Max_cycle;Signal;HPM_P1;HPM_P2
2021/03/28 00:00:22;;;;;;;0.55;0.35;;;19.80;46.20;;;;;;7712314;23;20432;-64
2021/03/28 00:03:28;;;;;;;0.57;0.40;;;19.80;45.90;;;;;;7712262;23;20015;-64
2021/03/28 00:06:30;;;;;;;0.47;0.40;;;19.80;46.10;;;;;;7711761;23;20012;-64
2021/03/28 00:09:34;;;;;;;0.40;0.30;;;19.80;45.90;;;;;;7711749;23;20004;-65
2021/03/28 00:12:37;;;;;;;0.25;0.25;;;19.80;45.90;;;;;;7711445;23;20019;-64
2021/03/28 00:15:43;;;;;;;1.20;0.60;;;19.80;46.00;;;;;;7711468;23;20451;-64
2021/03/28 00:18:58;;;;;;;;;;;19.80;46.00;;;;;;7712404;23;20040;-64
2021/03/28 00:22:01;;;;;;;0.40;0.40;;;19.80;46.00;;;;;;7711573;23;19970;-64
2021/03/28 00:25:14;;;;;;;0.57;0.30;;;19.80;46.00;;;;;;7711610;23;20012;-64
2021/03/28 00:28:29;;;;;;;0.57;0.40;;;19.80;46.00;;;;;;7711818;23;20012;-64
2021/03/28 00:31:53;;;;;;;0.50;0.30;;;19.80;46.10;;;;;;7711332;23;20001;-64
2021/03/28 00:35:07;;;;;;;0.88;0.45;;;19.80;46.10;;;;;;7712011;23;20498;-65
2021/03/28 00:38:13;;;;;;;0.45;0.40;;;19.80;46.10;;;;;;7711527;23;20000;-64
2021/03/28 00:41:19;;;;;;;0.60;0.38;;;19.80;46.10;;;;;;7711611;23;20016;-65
2021/03/28 00:44:21;;;;;;;0.40;0.30;;;19.80;46.10;;;;;;7711869;23;20009;-65
2021/03/28 00:47:30;;;;;;;0.55;0.47;;;19.80;46.10;;;;;;7710870;23;20023;-64
2021/03/28 00:50:38;;;;;;;0.57;0.43;;;19.80;46.00;;;;;;7711656;23;20106;-65
2021/03/28 00:54:00;;;;;;;0.32;0.30;;;19.80;46.70;;;;;;7711064;23;20062;-63
2021/03/28 00:57:05;;;;;;;0.50;0.40;;;19.80;46.00;;;;;;7711385;23;20383;-65
2021/03/28 01:00:20;;;;;;;1.35;0.30;;;19.80;45.90;;;;;;7711190;23;20009;-65
2021/03/28 01:03:35;;;;;;;0.57;0.50;;;19.80;46.10;;;;;;7711276;23;20017;-65
2021/03/28 01:06:46;;;;;;;1.13;0.50;;;19.80;46.00;;;;;;7711141;23;20011;-64
2021/03/28 01:10:12;;;;;;;0.45;0.35;;;19.80;46.20;;;;;;7711231;23;20066;-64
2021/03/28 01:13:47;;;;;;;0.30;0.28;;;19.80;46.10;;;;;;7710528;23;20016;-64
2021/03/28 01:17:11;;;;;;;0.30;0.30;;;19.80;46.00;;;;;;7711590;23;20004;-64
2021/03/28 01:20:27;;;;;;;1.30;0.40;;;19.80;46.10;;;;;;7711166;23;20005;-65
2021/03/28 01:23:32;;;;;;;;;;;19.80;46.20;;;;;;7710937;23;20008;-64
2021/03/28 01:26:51;;;;;;;0.70;0.40;;;19.80;46.00;;;;;;7710958;23;19906;-64
2021/03/28 01:30:02;;;;;;;0.50;0.40;;;19.80;46.20;;;;;;7710900;23;20005;-65
2021/03/28 01:33:11;;;;;;;0.45;0.35;;;19.80;46.20;;;;;;7710579;23;20027;-64
2021/03/28 01:36:21;;;;;;;0.75;0.52;;;19.80;46.10;;;;;;7710738;23;20506;-64
2021/03/28 01:39:27;;;;;;;0.47;0.47;;;19.80;46.20;;;;;;7710962;23;20090;-64
2021/03/28 01:42:49;;;;;;;0.50;0.50;;;19.80;46.20;;;;;;7710210;23;20012;-65
2021/03/28 01:46:03;;;;;;;0.52;0.30;;;19.80;46.30;;;;;;7711321;23;20028;-65
2021/03/28 01:49:25;;;;;;;0.20;0.20;;;19.80;46.10;;;;;;7710507;23;20329;-64
2021/03/28 01:52:25;;;;;;;0.45;0.30;;;19.80;46.10;;;;;;7710703;23;20004;-64
2021/03/28 01:55:51;;;;;;;0.30;0.30;;;19.80;46.30;;;;;;7710739;23;20008;-65
2021/03/28 01:59:20;;;;;;;0.85;0.35;;;19.80;46.20;;;;;;7710340;23;20428;-65
2021/03/28 02:02:49;;;;;;;0.82;0.47;;;19.80;46.30;;;;;;7710551;23;20016;-64
2021/03/28 02:06:43;;;;;;;0.65;0.32;;;19.80;46.20;;;;;;7711810;23;20011;-65
2021/03/28 02:10:12;;;;;;;0.70;0.40;;;19.80;46.10;;;;;;7713329;23;20001;-65
2021/03/28 02:13:12;;;;;;;0.40;0.30;;;19.80;46.10;;;;;;7713772;23;20255;-65
2021/03/28 02:16:46;;;;;;;1.27;0.60;;;19.80;46.20;;;;;;7712963;23;20016;-64
2021/03/28 02:20:27;;;;;;;0.88;0.30;;;19.70;46.10;;;;;;7712873;23;20004;-65
2021/03/28 02:24:05;;;;;;;0.40;0.40;;;19.80;46.10;;;;;;7712738;23;20013;-64
2021/03/28 02:27:38;;;;;;;1.15;0.40;;;19.80;46.30;;;;;;7712897;23;20075;-65
2021/03/28 02:30:42;;;;;;;0.45;0.35;;;19.70;46.10;;;;;;7712860;23;20005;-65
2021/03/28 02:33:51;;;;;;;0.50;0.47;;;19.80;46.20;;;;;;7713096;23;20001;-65
2021/03/28 02:37:11;;;;;;;0.50;0.40;;;19.80;46.30;;;;;;7709815;23;20272;-65
2021/03/28 02:40:25;;;;;;;1.10;0.55;;;19.70;46.10;;;;;;7712853;23;20355;-65
2021/03/28 02:43:48;;;;;;;0.73;0.47;;;19.80;46.30;;;;;;7712914;23;20016;-65
2021/03/28 02:46:58;;;;;;;0.50;0.30;;;19.70;46.20;;;;;;7713192;23;20062;-64
2021/03/28 02:50:25;;;;;;;0.98;0.60;;;19.70;46.10;;;;;;7712583;23;20115;-65
2021/03/28 02:53:59;;;;;;;0.47;0.40;;;19.70;46.20;;;;;;7712176;23;20328;-65
2021/03/28 02:57:23;;;;;;;0.68;0.50;;;19.80;46.30;;;;;;7712739;23;20028;-64
2021/03/28 03:00:29;;;;;;;1.25;0.45;;;19.80;46.40;;;;;;7712467;23;20012;-65
2021/03/28 03:04:07;;;;;;;0.95;0.45;;;19.70;46.20;;;;;;7712594;23;20019;-64
2021/03/28 03:07:11;;;;;;;0.93;0.50;;;19.70;46.20;;;;;;7712421;23;20023;-65
2021/03/28 03:10:43;;;;;;;1.17;0.35;;;19.70;46.20;;;;;;7712386;23;20043;-65
2021/03/28 03:14:11;;;;;;;0.77;0.50;;;19.70;46.10;;;;;;7712346;23;20008;-64
2021/03/28 03:17:56;;;;;;;2.88;0.60;;;19.70;46.20;;;;;;7711752;23;20097;-64
2021/03/28 03:21:15;;;;;;;1.00;0.50;;;19.70;46.10;;;;;;7712723;23;20028;-64
2021/03/28 03:25:04;;;;;;;1.13;0.40;;;19.70;46.30;;;;;;7712435;23;20012;-64
2021/03/28 03:28:43;;;;;;;1.83;0.68;;;19.70;46.20;;;;;;7712143;23;20005;-65
2021/03/28 03:32:02;;;;;;;0.70;0.60;;;19.70;46.30;;;;;;7712376;23;20007;-64
2021/03/28 03:35:27;;;;;;;0.93;0.60;;;19.70;46.30;;;;;;7712476;23;20012;-64
2021/03/28 03:38:45;;;;;;;0.57;0.40;;;19.70;46.30;;;;;;7712664;23;20100;-64
2021/03/28 03:42:05;;;;;;;0.95;0.68;;;19.70;46.30;;;;;;7712009;23;20011;-64
2021/03/28 03:45:29;;;;;;;0.88;0.50;;;19.70;46.30;;;;;;7711951;23;20004;-65
2021/03/28 03:48:52;;;;;;;0.60;0.40;;;19.70;46.30;;;;;;7711257;23;20024;-65
2021/03/28 03:52:10;;;;;;;0.50;0.30;;;19.70;46.20;;;;;;7712182;23;20091;-65
2021/03/28 03:55:26;;;;;;;1.13;0.57;;;19.70;46.30;;;;;;7712137;23;20005;-65
2021/03/28 03:58:42;;;;;;;0.80;0.40;;;19.70;46.30;;;;;;7711853;23;20318;-64
2021/03/28 04:01:43;;;;;;;1.08;0.45;;;19.70;46.30;;;;;;7711826;23;20009;-65
2021/03/28 04:05:19;;;;;;;0.80;0.32;;;19.70;46.30;;;;;;7711481;23;20479;-64
2021/03/28 04:08:34;;;;;;;0.75;0.45;;;19.70;46.30;;;;;;7711832;23;20028;-64
2021/03/28 04:12:00;;;;;;;0.50;0.40;;;19.70;46.20;;;;;;7712016;23;20076;-64
2021/03/28 04:15:34;;;;;;;0.65;0.40;;;19.70;46.30;;;;;;7711558;23;20004;-65
2021/03/28 04:18:44;;;;;;;1.67;0.60;;;19.80;46.20;;;;;;7711615;23;20023;-64
2021/03/28 04:22:05;;;;;;;0.50;0.40;;;19.70;46.00;;;;;;7711583;23;20005;-64
2021/03/28 04:25:35;;;;;;;0.50;0.40;;;19.80;46.00;;;;;;7710987;23;20032;-64
2021/03/28 04:28:54;;;;;;;0.63;0.38;;;19.80;46.10;;;;;;7711464;23;20005;-64
2021/03/28 04:32:21;;;;;;;0.65;0.35;;;19.80;46.10;;;;;;7711409;23;20004;-64
2021/03/28 04:35:40;;;;;;;0.82;0.55;;;19.80;46.10;;;;;;7711522;23;20015;-64
2021/03/28 04:39:05;;;;;;;0.95;0.57;;;19.80;46.00;;;;;;7711562;23;20505;-65
2021/03/28 04:42:40;;;;;;;0.40;0.38;;;19.80;46.10;;;;;;7711187;23;20429;-65
2021/03/28 04:46:14;;;;;;;0.30;0.20;;;19.80;46.10;;;;;;7711431;23;20001;-65
2021/03/28 04:49:52;;;;;;;0.70;0.60;;;19.80;46.00;;;;;;7711275;23;20016;-64
2021/03/28 04:53:35;;;;;;;1.05;0.40;;;19.80;46.10;;;;;;7711424;23;20000;-65
2021/03/28 04:57:03;;;;;;;1.10;0.40;;;19.80;46.00;;;;;;7711076;23;20031;-64
2021/03/28 05:00:40;;;;;;;0.63;0.35;;;19.80;46.10;;;;;;7710853;23;20004;-65
2021/03/28 05:04:10;;;;;;;0.65;0.47;;;19.80;46.00;;;;;;7711189;23;20011;-64
2021/03/28 05:07:43;;;;;;;1.00;0.52;;;19.80;46.00;;;;;;7710830;23;20001;-65
2021/03/28 05:10:43;;;;;;;0.73;0.40;;;19.80;46.00;;;;;;7710957;23;20397;-65
2021/03/28 05:14:21;;;;;;;0.40;0.40;;;19.80;46.10;;;;;;7711280;23;20052;-64
2021/03/28 05:17:59;;;;;;;0.80;0.40;;;19.80;46.00;;;;;;7710503;23;20032;-64
2021/03/28 05:21:44;;;;;;;1.50;0.52;;;19.80;46.00;;;;;;7710800;23;20008;-65
2021/03/28 05:25:15;;;;;;;1.05;0.57;;;19.80;46.00;;;;;;7710837;23;20009;-64
2021/03/28 05:28:25;;;;;;;0.65;0.40;;;19.80;46.00;;;;;;7710830;23;20008;-65
2021/03/28 05:31:53;;;;;;;0.45;0.43;;;19.80;46.10;;;;;;7711447;23;20419;-64
2021/03/28 05:35:12;;;;;;;0.40;0.40;;;19.80;46.10;;;;;;7710424;23;20072;-64
2021/03/28 05:38:12;;;;;;;1.08;0.50;;;19.80;46.00;;;;;;7710914;23;20013;-64
2021/03/28 05:41:56;;;;;;;0.77;0.50;;;19.80;46.00;;;;;;7710799;23;20009;-64
2021/03/28 05:45:24;;;;;;;1.50;0.50;;;19.80;46.00;;;;;;7598641;23;20025;-65
2021/03/28 05:48:39;;;;;;;1.10;0.50;;;19.80;46.00;;;;;;7710389;23;20099;-64
2021/03/28 05:51:56;;;;;;;0.88;0.60;;;19.80;46.80;;;;;;7710866;23;20005;-64
2021/03/28 05:55:22;;;;;;;1.05;0.60;;;19.80;46.00;;;;;;7710325;23;20023;-64
2021/03/28 05:58:48;;;;;;;0.70;0.50;;;19.80;46.00;;;;;;7710385;23;20013;-64
2021/03/28 06:02:18;;;;;;;0.85;0.43;;;19.80;45.90;;;;;;7710704;23;20023;-64
2021/03/28 06:05:54;;;;;;;0.90;0.43;;;19.80;46.00;;;;;;7710611;23;20000;-63
2021/03/28 06:09:12;;;;;;;2.55;0.75;;;19.80;46.00;;;;;;7710297;23;20034;-65
2021/03/28 06:12:25;;;;;;;0.90;0.50;;;19.80;46.00;;;;;;7710410;23;20420;-64
2021/03/28 06:16:03;;;;;;;1.08;0.50;;;19.80;46.00;;;;;;7710704;23;20012;-65
2021/03/28 06:19:18;;;;;;;0.38;0.30;;;19.80;46.00;;;;;;7710513;23;20084;-65
2021/03/28 06:22:43;;;;;;;1.65;0.68;;;19.80;45.90;;;;;;7710877;23;20520;-64
2021/03/28 06:26:24;;;;;;;1.02;0.50;;;19.80;46.00;;;;;;7710396;23;20071;-64
2021/03/28 06:29:56;;;;;;;0.80;0.40;;;19.80;45.90;;;;;;7678827;23;20332;-65
2021/03/28 06:33:41;;;;;;;0.82;0.45;;;19.80;46.10;;;;;;7710734;23;20075;-64
2021/03/28 06:37:19;;;;;;;0.47;0.20;;;19.80;46.00;;;;;;7710639;23;20285;-64
2021/03/28 06:40:41;;;;;;;0.80;0.60;;;19.80;46.00;;;;;;7710536;23;20063;-64
2021/03/28 06:44:06;;;;;;;1.27;0.50;;;19.80;46.00;;;;;;7710763;23;20016;-64
2021/03/28 06:47:21;;;;;;;0.60;0.40;;;19.80;46.00;;;;;;7710325;23;20013;-65
2021/03/28 06:50:33;;;;;;;0.68;0.40;;;19.80;46.10;;;;;;7710460;23;20009;-65
2021/03/28 06:53:39;;;;;;;0.90;0.52;;;19.80;46.10;;;;;;7712639;23;20004;-64
2021/03/28 06:56:48;;;;;;;0.95;0.40;;;19.80;46.10;;;;;;7711147;23;20008;-65
2021/03/28 07:00:38;;;;;;;1.38;0.60;;;19.80;46.00;;;;;;7712834;23;20452;-65
2021/03/28 07:04:01;;;;;;;0.85;0.40;;;19.80;45.90;;;;;;7700301;23;20012;-64
2021/03/28 07:07:32;;;;;;;0.95;0.32;;;19.80;46.00;;;;;;7711915;23;20015;-64
2021/03/28 07:10:56;;;;;;;0.88;0.50;;;19.80;46.00;;;;;;7712433;23;20351;-64
2021/03/28 07:14:47;;;;;;;0.65;0.50;;;19.80;46.00;;;;;;7712534;23;20000;-64
2021/03/28 07:17:47;;;;;;;0.93;0.50;;;19.80;46.00;;;;;;7712312;23;20054;-64
2021/03/28 07:21:03;;;;;;;0.75;0.43;;;19.80;46.00;;;;;;7712459;23;20004;-64
2021/03/28 07:24:09;;;;;;;;;;;19.80;45.90;;;;;;7712956;23;20070;-65
2021/03/28 07:27:47;;;;;;;0.77;0.50;;;19.80;46.00;;;;;;7712480;23;19907;-65
2021/03/28 07:31:25;;;;;;;0.77;0.50;;;19.80;46.00;;;;;;7712176;23;20000;-65
2021/03/28 07:34:56;;;;;;;0.93;0.38;;;19.80;46.00;;;;;;7712185;23;20086;-64
2021/03/28 07:38:15;;;;;;;1.75;0.77;;;19.80;46.00;;;;;;7712709;23;20092;-64
2021/03/28 07:41:16;;;;;;;0.88;0.50;;;19.80;46.00;;;;;;7711487;23;20009;-64
2021/03/28 07:44:25;;;;;;;0.68;0.40;;;19.80;46.10;;;;;;7712171;23;20017;-65
2021/03/28 07:47:55;;;;;;;1.05;0.50;;;19.80;46.00;;;;;;7711228;23;20008;-64
2021/03/28 07:51:25;;;;;;;0.82;0.40;;;19.80;45.90;;;;;;7671351;23;20439;-65
2021/03/28 07:54:57;;;;;;;1.80;0.40;;;19.80;46.00;;;;;;7671545;23;20036;-65
2021/03/28 07:58:48;;;;;;;0.60;0.40;;;19.80;46.00;;;;;;7711754;23;20000;-65
2021/03/28 08:02:23;;;;;;;1.23;0.50;;;19.80;46.00;;;;;;7673285;23;20095;-64
2021/03/28 08:05:49;;;;;;;0.90;0.50;;;19.80;46.00;;;;;;7712184;23;20054;-64
2021/03/28 08:09:07;;;;;;;1.40;0.40;;;19.80;46.00;;;;;;7712211;23;20090;-65
2021/03/28 08:12:48;;;;;;;0.85;0.43;;;19.80;46.00;;;;;;7711617;23;20468;-63
2021/03/28 08:16:10;;;;;;;0.40;0.40;;;19.80;46.10;;;;;;7711875;23;20004;-64
2021/03/28 08:19:32;;;;;;;0.47;0.32;;;19.80;46.10;;;;;;7711317;23;20337;-65
2021/03/28 08:22:57;;;;;;;0.50;0.38;;;19.80;46.00;;;;;;7711766;23;20020;-65
2021/03/28 08:26:16;;;;;;;1.42;0.47;;;19.80;46.00;;;;;;7711778;23;20005;-64
2021/03/28 08:29:31;;;;;;;1.17;0.50;;;19.80;46.00;;;;;;7711529;23;20321;-64
2021/03/28 08:33:04;;;;;;;1.05;0.50;;;19.80;45.90;;;;;;7711665;23;20308;-64
2021/03/28 08:36:19;;;;;;;0.45;0.30;;;19.80;45.90;;;;;;7711075;23;20027;-65
2021/03/28 08:39:35;;;;;;;0.85;0.50;;;19.80;46.00;;;;;;7711168;23;20000;-65
2021/03/28 08:42:57;;;;;;;0.47;0.28;;;19.80;46.00;;;;;;7711671;23;20059;-65
2021/03/28 08:46:31;;;;;;;1.38;0.40;;;19.80;45.80;;;;;;7711645;23;20052;-65
2021/03/28 08:49:57;;;;;;;1.33;0.60;;;19.80;46.00;;;;;;7711263;23;20356;-65
2021/03/28 08:53:23;;;;;;;;;;;19.80;46.00;;;;;;7711620;23;20379;-65
2021/03/28 08:56:29;;;;;;;0.95;0.30;;;19.80;46.10;;;;;;7711092;23;19948;-64
2021/03/28 08:59:32;;;;;;;1.08;0.50;;;19.80;46.10;;;;;;7711289;23;20096;-64
2021/03/28 09:03:14;;;;;;;1.38;0.45;;;19.80;46.10;;;;;;7710875;23;20032;-64
2021/03/28 09:06:20;;;;;;;0.77;0.40;;;19.80;46.00;;;;;;7711057;23;20440;-65
2021/03/28 09:09:41;;;;;;;1.00;0.50;;;19.80;46.00;;;;;;7711082;23;19997;-65
2021/03/28 09:13:20;;;;;;;0.95;0.50;;;19.80;46.00;;;;;;7710629;23;20001;-64
2021/03/28 09:16:41;;;;;;;1.02;0.40;;;19.80;46.20;;;;;;7711279;23;20083;-65
2021/03/28 09:19:51;;;;;;;0.70;0.52;;;19.80;46.20;;;;;;7711464;23;20015;-64
2021/03/28 09:23:16;;;;;;;1.23;0.50;;;19.80;46.10;;;;;;7710769;23;20063;-64
2021/03/28 09:26:32;;;;;;;0.65;0.30;;;19.80;46.20;;;;;;7711395;23;20309;-65
2021/03/28 09:29:53;;;;;;;0.77;0.50;;;19.80;46.10;;;;;;7710408;23;20012;-64
2021/03/28 09:33:21;;;;;;;0.98;0.40;;;19.80;46.20;;;;;;7711484;23;20009;-65
2021/03/28 09:36:38;;;;;;;0.60;0.40;;;19.80;46.20;;;;;;7711014;23;20080;-65
2021/03/28 09:40:24;;;;;;;0.68;0.35;;;19.80;46.30;;;;;;7698143;23;20337;-64
2021/03/28 09:43:24;;;;;;;;;;;19.90;46.80;;;;;;7707450;23;20344;-65
2021/03/28 09:47:03;;;;;;;1.50;0.60;;;19.90;46.50;;;;;;7708206;23;19915;-66
2021/03/28 09:50:28;;;;;;;2.03;0.50;;;19.90;45.80;;;;;;7708348;23;20383;-65
2021/03/28 09:53:43;;;;;;;0.83;0.40;;;19.90;46.30;;;;;;7707809;23;20084;-65
2021/03/28 09:57:05;;;;;;;9.73;0.60;;;19.90;46.40;;;;;;7707515;23;20004;-65
2021/03/28 10:00:27;;;;;;;1.40;0.40;;;20.00;47.70;;;;;;7707983;23;20007;-65
2021/03/28 10:03:49;;;;;;;2.42;0.60;;;20.00;47.10;;;;;;7707481;23;20008;-65
2021/03/28 10:07:02;;;;;;;5.20;1.08;;;20.00;47.00;;;;;;7707965;23;20448;-65
2021/03/28 10:10:29;;;;;;;5.95;0.52;;;19.90;46.60;;;;;;7706902;23;20031;-64
2021/03/28 10:14:12;;;;;;;3.72;0.60;;;19.90;46.50;;;;;;7707966;23;20023;-65
2021/03/28 10:17:39;;;;;;;2.28;0.70;;;19.90;46.50;;;;;;7708214;23;20449;-65
2021/03/28 10:21:07;;;;;;;1.27;0.43;;;19.90;46.40;;;;;;7707572;23;20499;-65
2021/03/28 10:24:23;;;;;;;3.40;0.60;;;19.90;46.50;;;;;;7707276;23;20013;-65
2021/03/28 10:27:32;;;;;;;1.00;0.50;;;19.90;46.70;;;;;;7708684;23;20055;-65
2021/03/28 10:30:49;;;;;;;1.75;0.60;;;19.90;46.20;;;;;;7710388;23;20072;-64
2021/03/28 10:34:16;;;;;;;7.55;0.98;;;19.90;46.60;;;;;;7708877;23;20501;-65
2021/03/28 10:37:41;;;;;;;16.67;1.30;;;19.80;44.20;;;;;;7710767;23;20036;-64
2021/03/28 10:41:23;;;;;;;5.70;0.90;;;19.90;45.30;;;;;;7710378;23;20012;-63
2021/03/28 10:44:57;;;;;;;15.77;2.30;;;19.90;46.00;;;;;;7709370;23;20012;-64
2021/03/28 10:48:12;;;;;;;13.68;2.03;;;19.80;43.30;;;;;;7710584;23;20040;-63
2021/03/28 10:51:16;;;;;;;;;;;19.80;43.90;;;;;;7709148;23;20012;-63
2021/03/28 10:54:49;;;;;;;11.98;1.92;;;19.80;42.90;;;;;;7710346;23;19907;-63
2021/03/28 10:58:35;;;;;;;11.20;1.98;;;19.80;42.40;;;;;;7709736;23;20051;-63
2021/03/28 11:01:35;;;;;;;15.80;2.28;;;19.80;43.50;;;;;;7707779;23;20008;-63
2021/03/28 11:04:51;;;;;;;12.63;2.30;;;19.80;42.80;;;;;;7709402;23;20316;-64
2021/03/28 11:08:17;;;;;;;11.88;2.58;;;19.80;42.40;;;;;;7708898;23;20008;-64
2021/03/28 11:11:26;;;;;;;8.90;1.92;;;19.80;41.40;;;;;;7708959;23;20024;-63
2021/03/28 11:14:45;;;;;;;9.55;2.35;;;19.80;40.90;;;;;;7706631;23;20421;-63
2021/03/28 11:18:21;;;;;;;15.82;2.33;;;19.80;41.10;;;;;;7706026;23;20008;-63
2021/03/28 11:21:27;;;;;;;9.50;2.10;;;19.80;41.60;;;;;;7709733;23;20250;-64
2021/03/28 11:24:54;;;;;;;12.07;1.92;;;19.90;40.20;;;;;;7707824;23;20008;-64
2021/03/28 11:28:13;;;;;;;9.30;1.92;;;19.90;39.80;;;;;;7705132;23;20005;-64
2021/03/28 11:31:26;;;;;;;9.00;2.03;;;19.90;40.60;;;;;;7707596;23;20016;-64
2021/03/28 11:34:49;;;;;;;3.83;1.65;;;19.90;40.90;;;;;;7707995;23;20016;-63
2021/03/28 11:38:17;;;;;;;6.28;1.90;;;20.00;42.20;;;;;;7706918;23;20083;-63
2021/03/28 11:41:20;;;;;;;10.80;1.95;;;20.00;41.90;;;;;;7709387;23;20001;-64
2021/03/28 11:44:27;;;;;;;5.22;1.45;;;20.00;41.50;;;;;;7709651;23;20012;-64
2021/03/28 11:47:39;;;;;;;9.25;1.55;;;20.00;41.60;;;;;;7708095;23;20629;-63
2021/03/28 11:50:41;;;;;;;6.47;1.63;;;20.00;41.70;;;;;;7709363;23;20478;-63
2021/03/28 11:53:43;;;;;;;7.03;1.63;;;20.00;43.50;;;;;;7708747;23;20024;-63
2021/03/28 11:56:51;;;;;;;7.47;1.95;;;20.00;43.50;;;;;;7708972;23;20035;-64
2021/03/28 11:59:54;;;;;;;29.90;2.78;;;20.00;43.10;;;;;;7706515;23;20027;-62
2021/03/28 12:03:20;;;;;;;8.35;1.90;;;20.10;44.20;;;;;;7708519;23;20019;-63
2021/03/28 12:06:20;;;;;;;10.18;1.70;;;20.10;42.30;;;;;;7708876;23;20001;-63
2021/03/28 12:09:31;;;;;;;13.68;1.75;;;20.10;42.00;;;;;;7707358;23;20036;-63
2021/03/28 12:12:48;;;;;;;8.02;1.65;;;20.20;42.60;;;;;;7705138;23;20087;-63
2021/03/28 12:15:48;;;;;;;7.53;1.58;;;20.20;42.40;;;;;;7708364;23;20005;-63
2021/03/28 12:18:52;;;;;;;8.52;1.63;;;20.20;42.50;;;;;;7708288;23;20011;-63
2021/03/28 12:22:01;;;;;;;8.90;1.88;;;20.20;42.70;;;;;;7708875;23;20004;-64
2021/03/28 12:25:13;;;;;;;7.95;1.55;;;20.20;42.70;;;;;;7707467;23;20440;-64
2021/03/28 12:28:28;;;;;;;9.13;1.67;;;20.20;42.80;;;;;;7708558;23;20001;-64
2021/03/28 12:31:32;;;;;;;5.88;1.85;;;20.20;43.70;;;;;;7708979;23;20031;-64
2021/03/28 12:34:38;;;;;;;8.95;1.98;;;20.30;43.90;;;;;;7706985;23;20035;-64
2021/03/28 12:37:39;;;;;;;11.73;1.65;;;20.30;43.70;;;;;;7707812;23;20656;-65
2021/03/28 12:40:40;;;;;;;3.65;1.30;;;20.30;43.30;;;;;;7708391;23;20012;-64
2021/03/28 12:43:48;;;;;;;3.92;1.38;;;20.40;43.20;;;;;;7709219;23;20016;-66
2021/03/28 12:47:14;;;;;;;5.63;1.55;;;20.40;44.00;;;;;;7708725;23;20038;-66
2021/03/28 12:50:15;;;;;;;;;;;20.50;43.60;;;;;;7695379;23;20031;-65
2021/03/28 12:53:20;;;;;;;15.25;1.23;;;20.60;44.60;;;;;;7708731;23;20465;-67
2021/03/28 12:56:29;;;;;;;6.53;1.08;;;20.60;43.60;;;;;;7708671;23;20087;-64
2021/03/28 12:59:35;;;;;;;7.60;1.17;;;20.70;43.50;;;;;;7709619;23;20106;-65
2021/03/28 13:02:36;;;;;;;3.67;1.10;;;20.70;43.70;;;;;;7707842;23;20040;-66
2021/03/28 13:05:47;;;;;;;10.13;1.83;;;20.80;43.60;;;;;;7708359;23;20015;-65
2021/03/28 13:09:21;;;;;;;4.35;1.42;;;20.90;43.90;;;;;;7707716;23;20005;-66
2021/03/28 13:12:24;;;;;;;10.70;1.20;;;21.00;44.20;;;;;;7707754;23;20432;-63
2021/03/28 13:15:25;;;;;;;4.00;1.50;;;21.00;43.50;;;;;;7706736;23;20007;-64
2021/03/28 13:18:40;;;;;;;2.90;1.10;;;21.00;43.40;;;;;;7707817;23;20004;-66
2021/03/28 13:21:41;;;;;;;2.72;1.15;;;21.10;43.50;;;;;;7708213;23;20005;-65
2021/03/28 13:24:42;;;;;;;7.30;1.20;;;21.10;43.70;;;;;;7708086;23;20008;-67
2021/03/28 13:27:48;;;;;;;2.97;1.27;;;21.10;43.40;;;;;;7707325;23;20011;-65
2021/03/28 13:30:50;;;;;;;2.50;1.08;;;21.20;43.30;;;;;;7709101;23;20443;-68
2021/03/28 13:33:54;;;;;;;5.20;1.55;;;21.20;43.30;;;;;;7708261;23;20008;-68
2021/03/28 13:37:19;;;;;;;2.47;1.02;;;21.20;43.50;;;;;;7709347;23;20493;-69
2021/03/28 13:40:45;;;;;;;1.92;1.00;;;21.30;43.20;;;;;;7708622;23;20000;-67
2021/03/28 13:43:45;;;;;;;;;;;21.30;43.30;;;;;;7709580;23;20071;-69
2021/03/28 13:46:54;;;;;;;2.17;1.15;;;21.20;43.70;;;;;;7709248;23;19904;-65
2021/03/28 13:49:54;;;;;;;4.38;1.05;;;21.30;43.40;;;;;;7707683;23;20186;-67
2021/03/28 13:52:56;;;;;;;5.43;1.20;;;21.30;43.30;;;;;;7708752;23;20008;-67
2021/03/28 13:56:24;;;;;;;9.23;1.13;;;21.30;43.40;;;;;;7707407;23;20099;-65
2021/03/28 13:59:26;;;;;;;14.63;1.40;;;21.20;43.90;;;;;;7708896;23;20004;-66
2021/03/28 14:02:29;;;;;;;7.68;1.23;;;21.10;44.10;;;;;;7710186;23;20001;-66
2021/03/28 14:05:39;;;;;;;5.47;1.17;;;21.00;43.80;;;;;;7711630;23;20643;-66
2021/03/28 14:08:39;;;;;;;7.25;1.40;;;20.90;43.70;;;;;;7711573;23;20005;-65
2021/03/28 14:11:48;;;;;;;5.45;1.15;;;20.80;43.70;;;;;;7710503;23;20011;-66
2021/03/28 14:15:00;;;;;;;5.13;1.30;;;20.80;43.80;;;;;;7709028;23;20333;-66
2021/03/28 14:18:10;;;;;;;3.17;0.90;;;20.80;43.90;;;;;;7710360;23;20451;-66
2021/03/28 14:21:36;;;;;;;4.95;1.00;;;20.70;44.00;;;;;;7712102;23;20735;-66
2021/03/28 14:24:37;;;;;;;2.22;0.80;;;20.70;44.10;;;;;;7710188;23;20436;-66
2021/03/28 14:27:38;;;;;;;3.25;0.90;;;20.70;44.10;;;;;;7708920;23;20012;-65
2021/03/28 14:30:39;;;;;;;4.15;1.05;;;20.70;44.20;;;;;;7710184;23;20004;-66
2021/03/28 14:34:04;;;;;;;4.47;0.98;;;20.60;44.20;;;;;;7710405;23;20316;-66
2021/03/28 14:37:23;;;;;;;2.40;0.63;;;20.60;44.30;;;;;;7710593;23;20116;-66
2021/03/28 14:40:48;;;;;;;7.05;0.82;;;20.60;44.40;;;;;;7709847;23;20008;-66
2021/03/28 14:43:55;;;;;;;;;;;20.60;44.50;;;;;;7710329;23;20015;-66
2021/03/28 14:47:23;;;;;;;2.50;0.95;;;20.60;44.50;;;;;;7710975;23;19974;-66
2021/03/28 14:50:46;;;;;;;1.55;0.88;;;20.60;44.50;;;;;;7710009;23;20024;-66
2021/03/28 14:53:57;;;;;;;2.72;0.85;;;20.60;44.60;;;;;;7710302;23;20016;-66
2021/03/28 14:57:03;;;;;;;2.88;1.02;;;20.60;44.60;;;;;;7711932;23;20000;-65
2021/03/28 15:00:07;;;;;;;2.75;1.08;;;20.50;44.60;;;;;;7710983;23;20015;-66
2021/03/28 15:03:14;;;;;;;2.25;1.02;;;20.50;44.60;;;;;;7711235;23;20012;-66
2021/03/28 15:06:32;;;;;;;2.08;0.90;;;20.50;44.70;;;;;;7710595;23;20086;-67
2021/03/28 15:09:58;;;;;;;1.88;0.80;;;20.50;44.60;;;;;;7711085;23;20000;-66
2021/03/28 15:13:04;;;;;;;3.83;0.70;;;20.50;44.70;;;;;;7710463;23;20004;-66
2021/03/28 15:16:24;;;;;;;2.08;0.80;;;20.50;44.70;;;;;;7710578;23;20055;-66
2021/03/28 15:19:46;;;;;;;1.33;0.68;;;20.50;44.70;;;;;;7709816;23;20004;-66
2021/03/28 15:22:52;;;;;;;3.03;0.88;;;20.50;44.90;;;;;;7710753;23;20048;-66
2021/03/28 15:26:15;;;;;;;3.38;0.82;;;20.50;44.80;;;;;;7710742;23;20005;-66
2021/03/28 15:29:36;;;;;;;1.80;1.13;;;20.50;44.80;;;;;;7709914;23;20080;-66
2021/03/28 15:32:39;;;;;;;3.25;0.90;;;20.50;45.60;;;;;;7710650;23;19997;-66
2021/03/28 15:35:54;;;;;;;1.48;0.73;;;20.50;45.00;;;;;;7710592;23;20488;-66
2021/03/28 15:39:19;;;;;;;2.30;0.60;;;20.50;45.00;;;;;;7709195;23;20008;-66
2021/03/28 15:42:42;;;;;;;4.70;0.85;;;20.40;45.50;;;;;;7708496;23;20493;-66
2021/03/28 15:45:47;;;;;;;1.52;0.73;;;20.40;44.90;;;;;;7709043;23;20004;-66
2021/03/28 15:49:09;;;;;;;2.50;0.80;;;20.40;45.10;;;;;;7708895;23;20036;-66
2021/03/28 15:52:31;;;;;;;3.55;0.75;;;20.40;45.00;;;;;;7709464;23;20005;-66
2021/03/28 15:56:02;;;;;;;1.63;0.77;;;20.40;45.10;;;;;;7709523;23;20005;-66
2021/03/28 15:59:12;;;;;;;4.90;0.70;;;20.40;45.20;;;;;;7709010;23;20050;-68
2021/03/28 16:02:38;;;;;;;2.67;0.60;;;20.40;45.30;;;;;;7710009;23;20456;-66
2021/03/28 16:05:52;;;;;;;3.15;0.60;;;20.40;45.50;;;;;;7666354;23;20040;-65
2021/03/28 16:09:25;;;;;;;7.65;0.90;;;20.50;45.30;;;;;;7710078;23;20000;-66
2021/03/28 16:12:45;;;;;;;4.32;0.88;;;20.50;45.20;;;;;;7710339;23;20328;-67
2021/03/28 16:16:11;;;;;;;1.83;0.75;;;20.50;45.30;;;;;;7710290;23;20095;-66
2021/03/28 16:19:49;;;;;;;3.85;0.70;;;20.50;45.30;;;;;;7708542;23;20008;-65
2021/03/28 16:23:18;;;;;;;3.83;0.80;;;20.40;45.20;;;;;;7709616;23;20039;-66
2021/03/28 16:26:44;;;;;;;2.05;0.80;;;20.50;45.30;;;;;;7709500;23;20498;-65
2021/03/28 16:30:02;;;;;;;5.70;1.00;;;20.50;45.30;;;;;;7709850;23;20005;-66
2021/03/28 16:33:19;;;;;;;2.35;0.90;;;20.40;45.20;;;;;;7709231;23;20000;-65
2021/03/28 16:36:22;;;;;;;7.43;0.80;;;20.50;45.30;;;;;;7709636;23;20000;-65
2021/03/28 16:39:29;;;;;;;2.60;0.52;;;20.50;45.20;;;;;;7709239;23;20001;-66
2021/03/28 16:42:45;;;;;;;3.53;0.68;;;20.50;45.30;;;;;;7709877;23;20463;-66
2021/03/28 16:46:12;;;;;;;1.85;0.68;;;20.50;45.30;;;;;;7709501;23;20004;-65
2021/03/28 16:49:25;;;;;;;2.33;0.75;;;20.50;45.20;;;;;;7709692;23;20486;-65
2021/03/28 16:52:30;;;;;;;4.47;0.70;;;20.50;45.20;;;;;;7709076;23;20340;-65
2021/03/28 16:55:43;;;;;;;4.93;0.80;;;20.50;45.20;;;;;;7708032;23;20004;-65
2021/03/28 16:58:47;;;;;;;2.42;0.95;;;20.50;45.30;;;;;;7708962;23;20005;-65
2021/03/28 17:01:48;;;;;;;4.63;0.70;;;20.50;45.20;;;;;;7706949;23;20000;-65
2021/03/28 17:05:15;;;;;;;6.18;0.80;;;20.50;45.40;;;;;;7707429;23;20005;-65
2021/03/28 17:08:34;;;;;;;7.75;0.70;;;20.50;45.10;;;;;;7706373;23;20080;-65
2021/03/28 17:11:58;;;;;;;3.05;0.63;;;20.50;45.30;;;;;;7707526;23;20050;-64
2021/03/28 17:15:23;;;;;;;4.65;0.93;;;20.40;45.30;;;;;;7706863;23;20005;-65